sensor_id;sensor_type;location;lat;lon;timestamp;temperature;humidity
24744;DHT22;12844;52.110;5.548;2022-07-05T00:00:38;25.10;57.90
24744;DHT22;12844;52.110;5.548;2022-07-05T00:03:04;25.00;57.80
24744;DHT22;12844;52.110;5.548;2022-07-05T00:05:30;25.10;57.90
24744;DHT22;12844;52.110;5.548;2022-07-05T00:07:55;25.00;57.80
24744;DHT22;12844;52.110;5.548;2022-07-05T00:10:21;25.00;57.80
24744;DHT22;12844;52.110;5.548;2022-07-05T00:12:46;25.00;58.40
24744;DHT22;12844;52.110;5.548;2022-07-05T00:15:12;25.00;57.70
24744;DHT22;12844;52.110;5.548;2022-07-05T00:17:37;25.00;57.70
24744;DHT22;12844;52.110;5.548;2022-07-05T00:20:03;25.00;57.70
24744;DHT22;12844;52.110;5.548;2022-07-05T00:22:29;25.00;57.70
24744;DHT22;12844;52.110;5.548;2022-07-05T00:24:55;25.00;57.70
24744;DHT22;12844;52.110;5.548;2022-07-05T00:27:20;25.00;57.70
24744;DHT22;12844;52.110;5.548;2022-07-05T00:29:46;25.00;57.70
24744;DHT22;12844;52.110;5.548;2022-07-05T00:32:12;25.00;57.70
24744;DHT22;12844;52.110;5.548;2022-07-05T00:34:37;25.00;57.60
24744;DHT22;12844;52.110;5.548;2022-07-05T00:37:03;25.00;57.60
24744;DHT22;12844;52.110;5.548;2022-07-05T00:39:29;25.00;57.60
24744;DHT22;12844;52.110;5.548;2022-07-05T00:41:54;25.00;57.60
24744;DHT22;12844;52.110;5.548;2022-07-05T00:44:29;25.00;57.50
24744;DHT22;12844;52.110;5.548;2022-07-05T00:46:56;25.00;57.50
24744;DHT22;12844;52.110;5.548;2022-07-05T00:49:21;25.00;57.50
24744;DHT22;12844;52.110;5.548;2022-07-05T00:51:47;25.00;57.50
24744;DHT22;12844;52.110;5.548;2022-07-05T00:54:12;25.00;57.40
24744;DHT22;12844;52.110;5.548;2022-07-05T00:56:38;25.00;57.40
24744;DHT22;12844;52.110;5.548;2022-07-05T00:59:04;25.00;57.40
24744;DHT22;12844;52.110;5.548;2022-07-05T01:01:29;25.00;58.00
24744;DHT22;12844;52.110;5.548;2022-07-05T01:03:55;25.00;57.40
24744;DHT22;12844;52.110;5.548;2022-07-05T01:06:21;25.00;57.30
24744;DHT22;12844;52.110;5.548;2022-07-05T01:08:46;25.00;57.30
24744;DHT22;12844;52.110;5.548;2022-07-05T01:11:13;25.00;57.40
24744;DHT22;12844;52.110;5.548;2022-07-05T01:13:39;25.00;57.30
24744;DHT22;12844;52.110;5.548;2022-07-05T01:16:05;24.90;57.10
24744;DHT22;12844;52.110;5.548;2022-07-05T01:18:31;24.90;57.20
24744;DHT22;12844;52.110;5.548;2022-07-05T01:20:58;24.90;57.20
24744;DHT22;12844;52.110;5.548;2022-07-05T01:23:27;24.90;57.10
24744;DHT22;12844;52.110;5.548;2022-07-05T01:25:53;24.90;57.20
24744;DHT22;12844;52.110;5.548;2022-07-05T01:28:19;25.00;57.20
24744;DHT22;12844;52.110;5.548;2022-07-05T01:30:47;24.90;57.10
24744;DHT22;12844;52.110;5.548;2022-07-05T01:33:12;24.90;57.00
24744;DHT22;12844;52.110;5.548;2022-07-05T01:35:38;24.90;57.00
24744;DHT22;12844;52.110;5.548;2022-07-05T01:38:03;24.90;57.00
24744;DHT22;12844;52.110;5.548;2022-07-05T01:40:29;24.90;57.00
24744;DHT22;12844;52.110;5.548;2022-07-05T01:42:55;24.90;57.00
24744;DHT22;12844;52.110;5.548;2022-07-05T01:45:21;24.90;57.60
24744;DHT22;12844;52.110;5.548;2022-07-05T01:48:10;24.90;56.90
24744;DHT22;12844;52.110;5.548;2022-07-05T01:51:01;24.90;56.90
24744;DHT22;12844;52.110;5.548;2022-07-05T01:53:31;24.90;56.80
24744;DHT22;12844;52.110;5.548;2022-07-05T01:56:00;24.90;56.90
24744;DHT22;12844;52.110;5.548;2022-07-05T01:58:26;24.90;56.90
24744;DHT22;12844;52.110;5.548;2022-07-05T02:00:53;24.80;56.80
24744;DHT22;12844;52.110;5.548;2022-07-05T02:03:20;24.90;56.80
24744;DHT22;12844;52.110;5.548;2022-07-05T02:05:45;24.90;56.80
24744;DHT22;12844;52.110;5.548;2022-07-05T02:08:12;24.90;56.70
24744;DHT22;12844;52.110;5.548;2022-07-05T02:10:39;24.90;56.70
24744;DHT22;12844;52.110;5.548;2022-07-05T02:13:05;24.80;56.60
24744;DHT22;12844;52.110;5.548;2022-07-05T02:15:33;24.80;56.60
24744;DHT22;12844;52.110;5.548;2022-07-05T02:17:59;24.80;56.70
24744;DHT22;12844;52.110;5.548;2022-07-05T02:20:25;24.80;56.70
24744;DHT22;12844;52.110;5.548;2022-07-05T02:22:51;24.80;56.70
24744;DHT22;12844;52.110;5.548;2022-07-05T02:25:16;24.80;56.70
24744;DHT22;12844;52.110;5.548;2022-07-05T02:27:42;24.80;56.60
24744;DHT22;12844;52.110;5.548;2022-07-05T02:30:08;24.80;56.70
24744;DHT22;12844;52.110;5.548;2022-07-05T02:32:33;24.80;56.60
24744;DHT22;12844;52.110;5.548;2022-07-05T02:34:59;24.80;56.60
24744;DHT22;12844;52.110;5.548;2022-07-05T02:37:25;24.80;56.70
24744;DHT22;12844;52.110;5.548;2022-07-05T02:39:51;24.80;56.60
24744;DHT22;12844;52.110;5.548;2022-07-05T02:42:17;24.80;56.60
24744;DHT22;12844;52.110;5.548;2022-07-05T02:44:42;24.80;56.50
24744;DHT22;12844;52.110;5.548;2022-07-05T02:47:08;24.80;56.50
24744;DHT22;12844;52.110;5.548;2022-07-05T02:49:33;24.80;56.50
24744;DHT22;12844;52.110;5.548;2022-07-05T02:51:59;24.80;57.10
24744;DHT22;12844;52.110;5.548;2022-07-05T02:54:24;24.80;56.50
24744;DHT22;12844;52.110;5.548;2022-07-05T02:56:50;24.80;56.50
24744;DHT22;12844;52.110;5.548;2022-07-05T02:59:15;24.80;56.50
24744;DHT22;12844;52.110;5.548;2022-07-05T03:01:41;24.80;56.50
24744;DHT22;12844;52.110;5.548;2022-07-05T03:04:06;24.80;56.50
24744;DHT22;12844;52.110;5.548;2022-07-05T03:06:32;24.80;56.50
24744;DHT22;12844;52.110;5.548;2022-07-05T03:08:58;24.80;56.50
24744;DHT22;12844;52.110;5.548;2022-07-05T03:11:23;24.80;56.50
24744;DHT22;12844;52.110;5.548;2022-07-05T03:13:49;24.80;56.40
24744;DHT22;12844;52.110;5.548;2022-07-05T03:16:15;24.80;56.40
24744;DHT22;12844;52.110;5.548;2022-07-05T03:18:40;24.80;57.00
24744;DHT22;12844;52.110;5.548;2022-07-05T03:21:06;24.80;56.40
24744;DHT22;12844;52.110;5.548;2022-07-05T03:23:31;24.80;56.40
24744;DHT22;12844;52.110;5.548;2022-07-05T03:25:57;24.80;56.40
24744;DHT22;12844;52.110;5.548;2022-07-05T03:28:22;24.80;56.50
24744;DHT22;12844;52.110;5.548;2022-07-05T03:30:48;24.80;56.40
24744;DHT22;12844;52.110;5.548;2022-07-05T03:33:13;24.70;57.00
24744;DHT22;12844;52.110;5.548;2022-07-05T03:35:39;24.70;56.40
24744;DHT22;12844;52.110;5.548;2022-07-05T03:38:04;24.80;56.40
24744;DHT22;12844;52.110;5.548;2022-07-05T03:40:30;24.80;56.40
24744;DHT22;12844;52.110;5.548;2022-07-05T03:42:56;24.80;56.40
24744;DHT22;12844;52.110;5.548;2022-07-05T03:45:22;24.80;56.40
24744;DHT22;12844;52.110;5.548;2022-07-05T03:47:47;24.70;56.40
24744;DHT22;12844;52.110;5.548;2022-07-05T03:50:13;24.80;56.40
24744;DHT22;12844;52.110;5.548;2022-07-05T03:52:39;24.70;56.30
24744;DHT22;12844;52.110;5.548;2022-07-05T03:55:05;24.70;56.40
24744;DHT22;12844;52.110;5.548;2022-07-05T03:57:30;24.70;56.40
24744;DHT22;12844;52.110;5.548;2022-07-05T03:59:56;24.70;56.30
24744;DHT22;12844;52.110;5.548;2022-07-05T04:02:22;24.80;56.40
24744;DHT22;12844;52.110;5.548;2022-07-05T04:04:47;24.70;56.30
24744;DHT22;12844;52.110;5.548;2022-07-05T04:07:13;24.70;56.30
24744;DHT22;12844;52.110;5.548;2022-07-05T04:09:38;24.70;56.40
24744;DHT22;12844;52.110;5.548;2022-07-05T04:12:04;24.70;56.30
24744;DHT22;12844;52.110;5.548;2022-07-05T04:14:30;24.70;56.30
24744;DHT22;12844;52.110;5.548;2022-07-05T04:16:56;24.70;56.30
24744;DHT22;12844;52.110;5.548;2022-07-05T04:19:21;24.70;56.30
24744;DHT22;12844;52.110;5.548;2022-07-05T04:21:47;24.70;56.30
24744;DHT22;12844;52.110;5.548;2022-07-05T04:24:12;24.70;56.30
24744;DHT22;12844;52.110;5.548;2022-07-05T04:26:38;24.70;56.40
24744;DHT22;12844;52.110;5.548;2022-07-05T04:29:04;24.70;56.30
24744;DHT22;12844;52.110;5.548;2022-07-05T04:31:29;24.70;56.30
24744;DHT22;12844;52.110;5.548;2022-07-05T04:33:55;24.70;56.30
24744;DHT22;12844;52.110;5.548;2022-07-05T04:36:20;24.70;56.20
24744;DHT22;12844;52.110;5.548;2022-07-05T04:38:46;24.70;56.20
24744;DHT22;12844;52.110;5.548;2022-07-05T04:41:11;24.70;56.20
24744;DHT22;12844;52.110;5.548;2022-07-05T04:43:37;24.70;56.30
24744;DHT22;12844;52.110;5.548;2022-07-05T04:46:02;24.70;56.20
24744;DHT22;12844;52.110;5.548;2022-07-05T04:48:28;24.70;56.20
24744;DHT22;12844;52.110;5.548;2022-07-05T04:50:53;24.70;56.20
24744;DHT22;12844;52.110;5.548;2022-07-05T04:53:19;24.70;56.20
24744;DHT22;12844;52.110;5.548;2022-07-05T04:55:44;24.70;56.10
24744;DHT22;12844;52.110;5.548;2022-07-05T04:58:10;24.70;56.20
24744;DHT22;12844;52.110;5.548;2022-07-05T05:00:36;24.70;56.20
24744;DHT22;12844;52.110;5.548;2022-07-05T05:03:02;24.70;56.10
24744;DHT22;12844;52.110;5.548;2022-07-05T05:05:28;24.70;56.10
24744;DHT22;12844;52.110;5.548;2022-07-05T05:07:53;24.70;56.10
24744;DHT22;12844;52.110;5.548;2022-07-05T05:10:19;24.70;56.20
24744;DHT22;12844;52.110;5.548;2022-07-05T05:12:44;24.70;56.10
24744;DHT22;12844;52.110;5.548;2022-07-05T05:15:10;24.70;56.20
24744;DHT22;12844;52.110;5.548;2022-07-05T05:17:36;24.70;56.10
24744;DHT22;12844;52.110;5.548;2022-07-05T05:20:03;24.70;56.20
24744;DHT22;12844;52.110;5.548;2022-07-05T05:22:29;24.70;56.10
24744;DHT22;12844;52.110;5.548;2022-07-05T05:24:55;24.70;56.10
24744;DHT22;12844;52.110;5.548;2022-07-05T05:27:20;24.70;56.10
24744;DHT22;12844;52.110;5.548;2022-07-05T05:29:46;24.70;56.10
24744;DHT22;12844;52.110;5.548;2022-07-05T05:32:11;24.70;56.10
24744;DHT22;12844;52.110;5.548;2022-07-05T05:34:37;24.70;56.10
24744;DHT22;12844;52.110;5.548;2022-07-05T05:37:02;24.70;56.10
24744;DHT22;12844;52.110;5.548;2022-07-05T05:39:28;24.70;56.10
24744;DHT22;12844;52.110;5.548;2022-07-05T05:41:53;24.70;56.10
24744;DHT22;12844;52.110;5.548;2022-07-05T05:44:19;24.70;56.00
24744;DHT22;12844;52.110;5.548;2022-07-05T05:46:45;24.70;56.00
24744;DHT22;12844;52.110;5.548;2022-07-05T05:49:10;24.70;56.10
24744;DHT22;12844;52.110;5.548;2022-07-05T05:51:36;24.70;56.10
24744;DHT22;12844;52.110;5.548;2022-07-05T05:54:01;24.70;56.10
24744;DHT22;12844;52.110;5.548;2022-07-05T05:56:27;24.70;56.10
24744;DHT22;12844;52.110;5.548;2022-07-05T05:58:52;24.70;56.00
24744;DHT22;12844;52.110;5.548;2022-07-05T06:01:18;24.70;56.10
24744;DHT22;12844;52.110;5.548;2022-07-05T06:03:43;24.70;56.10
24744;DHT22;12844;52.110;5.548;2022-07-05T06:06:09;24.70;56.10
24744;DHT22;12844;52.110;5.548;2022-07-05T06:08:34;24.70;56.10
24744;DHT22;12844;52.110;5.548;2022-07-05T06:11:00;24.70;56.10
24744;DHT22;12844;52.110;5.548;2022-07-05T06:13:29;24.70;56.00
24744;DHT22;12844;52.110;5.548;2022-07-05T06:15:55;24.70;55.90
24744;DHT22;12844;52.110;5.548;2022-07-05T06:18:20;24.70;55.90
24744;DHT22;12844;52.110;5.548;2022-07-05T06:20:46;24.70;55.90
24744;DHT22;12844;52.110;5.548;2022-07-05T06:23:11;24.70;55.90
24744;DHT22;12844;52.110;5.548;2022-07-05T06:25:37;24.70;55.80
24744;DHT22;12844;52.110;5.548;2022-07-05T06:28:05;24.70;55.80
24744;DHT22;12844;52.110;5.548;2022-07-05T06:30:33;24.70;55.80
24744;DHT22;12844;52.110;5.548;2022-07-05T06:32:59;24.70;55.90
24744;DHT22;12844;52.110;5.548;2022-07-05T06:35:25;24.70;55.80
24744;DHT22;12844;52.110;5.548;2022-07-05T06:38:04;24.70;55.80
24744;DHT22;12844;52.110;5.548;2022-07-05T06:40:32;24.70;55.70
24744;DHT22;12844;52.110;5.548;2022-07-05T06:43:00;24.70;55.80
24744;DHT22;12844;52.110;5.548;2022-07-05T06:45:26;24.70;55.80
24744;DHT22;12844;52.110;5.548;2022-07-05T06:47:59;24.80;55.90
24744;DHT22;12844;52.110;5.548;2022-07-05T06:50:26;24.80;55.90
24744;DHT22;12844;52.110;5.548;2022-07-05T06:52:52;24.80;55.80
24744;DHT22;12844;52.110;5.548;2022-07-05T06:55:17;24.70;55.80
24744;DHT22;12844;52.110;5.548;2022-07-05T06:57:43;24.80;56.00
24744;DHT22;12844;52.110;5.548;2022-07-05T07:00:11;24.80;56.00
24744;DHT22;12844;52.110;5.548;2022-07-05T07:02:37;24.80;55.90
24744;DHT22;12844;52.110;5.548;2022-07-05T07:05:02;24.80;55.90
24744;DHT22;12844;52.110;5.548;2022-07-05T07:07:31;24.80;55.80
24744;DHT22;12844;52.110;5.548;2022-07-05T07:10:15;24.80;55.90
24744;DHT22;12844;52.110;5.548;2022-07-05T07:12:40;24.80;55.90
24744;DHT22;12844;52.110;5.548;2022-07-05T07:15:06;24.80;56.00
24744;DHT22;12844;52.110;5.548;2022-07-05T07:17:32;24.80;56.00
24744;DHT22;12844;52.110;5.548;2022-07-05T07:19:58;24.80;56.00
24744;DHT22;12844;52.110;5.548;2022-07-05T07:22:23;24.80;55.90
24744;DHT22;12844;52.110;5.548;2022-07-05T07:24:49;24.80;56.10
24744;DHT22;12844;52.110;5.548;2022-07-05T07:27:14;24.80;56.10
24744;DHT22;12844;52.110;5.548;2022-07-05T07:29:40;24.80;56.20
24744;DHT22;12844;52.110;5.548;2022-07-05T07:32:06;24.80;56.10
24744;DHT22;12844;52.110;5.548;2022-07-05T07:34:33;24.80;56.10
24744;DHT22;12844;52.110;5.548;2022-07-05T07:36:58;24.80;56.10
24744;DHT22;12844;52.110;5.548;2022-07-05T07:39:25;24.80;56.20
24744;DHT22;12844;52.110;5.548;2022-07-05T07:41:51;24.80;56.20
24744;DHT22;12844;52.110;5.548;2022-07-05T07:44:17;24.80;56.10
24744;DHT22;12844;52.110;5.548;2022-07-05T07:46:43;24.80;56.70
24744;DHT22;12844;52.110;5.548;2022-07-05T07:49:09;24.80;56.20
24744;DHT22;12844;52.110;5.548;2022-07-05T07:51:35;24.80;56.20
24744;DHT22;12844;52.110;5.548;2022-07-05T07:54:01;24.80;56.10
24744;DHT22;12844;52.110;5.548;2022-07-05T07:56:27;24.80;56.10
24744;DHT22;12844;52.110;5.548;2022-07-05T07:58:52;24.80;56.10
24744;DHT22;12844;52.110;5.548;2022-07-05T08:01:18;24.80;56.10
24744;DHT22;12844;52.110;5.548;2022-07-05T08:03:44;24.80;56.10
24744;DHT22;12844;52.110;5.548;2022-07-05T08:06:10;24.80;56.20
24744;DHT22;12844;52.110;5.548;2022-07-05T08:08:40;24.80;56.20
24744;DHT22;12844;52.110;5.548;2022-07-05T08:11:08;24.80;56.30
24744;DHT22;12844;52.110;5.548;2022-07-05T08:13:34;24.80;56.20
24744;DHT22;12844;52.110;5.548;2022-07-05T08:15:59;24.80;56.20
24744;DHT22;12844;52.110;5.548;2022-07-05T08:18:25;24.80;56.20
24744;DHT22;12844;52.110;5.548;2022-07-05T08:21:10;24.90;56.30
24744;DHT22;12844;52.110;5.548;2022-07-05T08:23:54;24.80;56.30
24744;DHT22;12844;52.110;5.548;2022-07-05T08:26:20;24.80;56.30
24744;DHT22;12844;52.110;5.548;2022-07-05T08:28:46;24.90;56.30
24744;DHT22;12844;52.110;5.548;2022-07-05T08:31:11;24.80;56.20
24744;DHT22;12844;52.110;5.548;2022-07-05T08:33:37;24.80;56.20
24744;DHT22;12844;52.110;5.548;2022-07-05T08:36:03;24.90;56.20
24744;DHT22;12844;52.110;5.548;2022-07-05T08:38:29;24.90;55.80
24744;DHT22;12844;52.110;5.548;2022-07-05T08:40:55;24.90;55.40
24744;DHT22;12844;52.110;5.548;2022-07-05T08:43:24;24.90;55.60
24744;DHT22;12844;52.110;5.548;2022-07-05T08:45:52;24.90;55.50
24744;DHT22;12844;52.110;5.548;2022-07-05T08:48:19;24.90;55.50
24744;DHT22;12844;52.110;5.548;2022-07-05T08:50:46;24.90;55.60
24744;DHT22;12844;52.110;5.548;2022-07-05T08:53:15;24.90;55.90
24744;DHT22;12844;52.110;5.548;2022-07-05T08:55:41;24.90;55.70
24744;DHT22;12844;52.110;5.548;2022-07-05T08:58:07;24.90;54.50
24744;DHT22;12844;52.110;5.548;2022-07-05T09:00:33;24.90;54.70
24744;DHT22;12844;52.110;5.548;2022-07-05T09:02:59;24.90;55.10
24744;DHT22;12844;52.110;5.548;2022-07-05T09:05:25;24.90;55.20
24744;DHT22;12844;52.110;5.548;2022-07-05T09:07:59;25.00;55.40
24744;DHT22;12844;52.110;5.548;2022-07-05T09:10:26;25.00;55.10
24744;DHT22;12844;52.110;5.548;2022-07-05T09:12:52;25.00;55.30
24744;DHT22;12844;52.110;5.548;2022-07-05T09:15:19;25.10;55.40
24744;DHT22;12844;52.110;5.548;2022-07-05T09:17:45;25.10;55.50
24744;DHT22;12844;52.110;5.548;2022-07-05T09:20:14;25.20;55.50
24744;DHT22;12844;52.110;5.548;2022-07-05T09:22:50;25.10;55.40
24744;DHT22;12844;52.110;5.548;2022-07-05T09:25:27;25.20;55.40
24744;DHT22;12844;52.110;5.548;2022-07-05T09:28:04;25.10;55.40
24744;DHT22;12844;52.110;5.548;2022-07-05T09:30:36;25.10;55.50
24744;DHT22;12844;52.110;5.548;2022-07-05T09:33:11;25.10;55.50
24744;DHT22;12844;52.110;5.548;2022-07-05T09:35:38;25.10;55.60
24744;DHT22;12844;52.110;5.548;2022-07-05T09:38:07;25.10;55.60
24744;DHT22;12844;52.110;5.548;2022-07-05T09:40:49;25.10;55.60
24744;DHT22;12844;52.110;5.548;2022-07-05T09:43:17;25.10;55.50
24744;DHT22;12844;52.110;5.548;2022-07-05T09:45:56;25.00;55.40
24744;DHT22;12844;52.110;5.548;2022-07-05T09:48:23;25.10;55.50
24744;DHT22;12844;52.110;5.548;2022-07-05T09:50:49;25.00;55.50
24744;DHT22;12844;52.110;5.548;2022-07-05T09:53:19;25.00;55.50
24744;DHT22;12844;52.110;5.548;2022-07-05T09:56:03;25.00;55.50
24744;DHT22;12844;52.110;5.548;2022-07-05T09:58:29;25.00;55.40
24744;DHT22;12844;52.110;5.548;2022-07-05T10:00:55;25.00;55.60
24744;DHT22;12844;52.110;5.548;2022-07-05T10:03:21;25.00;55.60
24744;DHT22;12844;52.110;5.548;2022-07-05T10:05:47;25.00;55.60
24744;DHT22;12844;52.110;5.548;2022-07-05T10:08:13;24.90;55.60
24744;DHT22;12844;52.110;5.548;2022-07-05T10:10:38;25.00;55.70
24744;DHT22;12844;52.110;5.548;2022-07-05T10:13:06;25.00;55.60
24744;DHT22;12844;52.110;5.548;2022-07-05T10:15:33;25.00;55.70
24744;DHT22;12844;52.110;5.548;2022-07-05T10:18:05;25.00;55.60
24744;DHT22;12844;52.110;5.548;2022-07-05T10:23:03;25.00;55.60
24744;DHT22;12844;52.110;5.548;2022-07-05T10:25:30;25.00;55.60
24744;DHT22;12844;52.110;5.548;2022-07-05T10:27:57;25.00;55.60
24744;DHT22;12844;52.110;5.548;2022-07-05T10:30:23;25.00;55.60
24744;DHT22;12844;52.110;5.548;2022-07-05T10:32:49;25.00;55.50
24744;DHT22;12844;52.110;5.548;2022-07-05T10:35:16;25.00;55.50
24744;DHT22;12844;52.110;5.548;2022-07-05T10:37:43;25.00;55.50
24744;DHT22;12844;52.110;5.548;2022-07-05T10:40:10;25.00;55.60
24744;DHT22;12844;52.110;5.548;2022-07-05T10:42:56;25.00;55.60
24744;DHT22;12844;52.110;5.548;2022-07-05T10:45:31;25.00;55.50
24744;DHT22;12844;52.110;5.548;2022-07-05T10:50:52;25.00;55.60
24744;DHT22;12844;52.110;5.548;2022-07-05T10:53:25;25.00;55.50
24744;DHT22;12844;52.110;5.548;2022-07-05T10:55:58;25.00;55.60
24744;DHT22;12844;52.110;5.548;2022-07-05T11:11:28;25.00;55.50
24744;DHT22;12844;52.110;5.548;2022-07-05T11:13:55;25.00;55.50
24744;DHT22;12844;52.110;5.548;2022-07-05T11:16:22;25.00;55.50
24744;DHT22;12844;52.110;5.548;2022-07-05T11:18:53;25.00;55.40
24744;DHT22;12844;52.110;5.548;2022-07-05T11:21:29;25.00;55.40
24744;DHT22;12844;52.110;5.548;2022-07-05T11:24:27;25.00;55.50
24744;DHT22;12844;52.110;5.548;2022-07-05T11:26:55;25.00;55.40
24744;DHT22;12844;52.110;5.548;2022-07-05T11:29:45;25.00;55.50
24744;DHT22;12844;52.110;5.548;2022-07-05T11:32:15;25.00;55.40
24744;DHT22;12844;52.110;5.548;2022-07-05T11:34:42;25.00;55.50
24744;DHT22;12844;52.110;5.548;2022-07-05T11:39:43;25.00;55.40
24744;DHT22;12844;52.110;5.548;2022-07-05T11:42:10;25.00;55.40
24744;DHT22;12844;52.110;5.548;2022-07-05T11:44:36;25.00;55.40
24744;DHT22;12844;52.110;5.548;2022-07-05T11:47:03;25.00;55.40
24744;DHT22;12844;52.110;5.548;2022-07-05T11:49:29;25.00;55.40
24744;DHT22;12844;52.110;5.548;2022-07-05T11:51:56;25.00;55.40
24744;DHT22;12844;52.110;5.548;2022-07-05T11:54:26;25.00;55.40
24744;DHT22;12844;52.110;5.548;2022-07-05T11:56:52;25.00;55.40
24744;DHT22;12844;52.110;5.548;2022-07-05T11:59:19;25.00;55.40
24744;DHT22;12844;52.110;5.548;2022-07-05T12:01:46;25.00;55.40
24744;DHT22;12844;52.110;5.548;2022-07-05T12:04:12;25.00;55.40
24744;DHT22;12844;52.110;5.548;2022-07-05T12:06:45;25.00;55.40
24744;DHT22;12844;52.110;5.548;2022-07-05T12:09:13;25.10;55.40
24744;DHT22;12844;52.110;5.548;2022-07-05T12:11:39;25.10;55.40
24744;DHT22;12844;52.110;5.548;2022-07-05T12:14:23;25.10;55.30
24744;DHT22;12844;52.110;5.548;2022-07-05T12:17:10;25.10;55.40
24744;DHT22;12844;52.110;5.548;2022-07-05T12:19:36;25.10;55.30
24744;DHT22;12844;52.110;5.548;2022-07-05T12:22:02;25.10;55.40
24744;DHT22;12844;52.110;5.548;2022-07-05T12:24:27;25.10;55.40
24744;DHT22;12844;52.110;5.548;2022-07-05T12:26:53;25.00;55.40
24744;DHT22;12844;52.110;5.548;2022-07-05T12:29:19;25.10;55.40
24744;DHT22;12844;52.110;5.548;2022-07-05T12:32:04;25.10;55.40
24744;DHT22;12844;52.110;5.548;2022-07-05T12:34:34;25.10;55.30
24744;DHT22;12844;52.110;5.548;2022-07-05T12:36:59;25.10;55.40
24744;DHT22;12844;52.110;5.548;2022-07-05T12:39:25;25.10;55.40
24744;DHT22;12844;52.110;5.548;2022-07-05T12:41:51;25.00;55.30
24744;DHT22;12844;52.110;5.548;2022-07-05T12:44:20;25.00;55.30
24744;DHT22;12844;52.110;5.548;2022-07-05T12:46:46;25.00;55.30
24744;DHT22;12844;52.110;5.548;2022-07-05T12:49:12;25.00;55.30
24744;DHT22;12844;52.110;5.548;2022-07-05T12:51:39;25.00;55.30
24744;DHT22;12844;52.110;5.548;2022-07-05T12:54:18;25.10;55.30
24744;DHT22;12844;52.110;5.548;2022-07-05T12:57:02;25.10;55.30
24744;DHT22;12844;52.110;5.548;2022-07-05T13:00:04;25.10;55.30
24744;DHT22;12844;52.110;5.548;2022-07-05T13:02:41;25.10;55.30
24744;DHT22;12844;52.110;5.548;2022-07-05T13:05:08;25.10;55.20
24744;DHT22;12844;52.110;5.548;2022-07-05T13:07:43;25.20;55.10
24744;DHT22;12844;52.110;5.548;2022-07-05T13:10:14;25.30;55.00
24744;DHT22;12844;52.110;5.548;2022-07-05T13:12:40;25.30;55.00
24744;DHT22;12844;52.110;5.548;2022-07-05T13:15:06;25.30;54.90
24744;DHT22;12844;52.110;5.548;2022-07-05T13:17:32;25.30;54.90
24744;DHT22;12844;52.110;5.548;2022-07-05T13:19:57;25.30;54.90
24744;DHT22;12844;52.110;5.548;2022-07-05T13:22:25;25.30;55.60
24744;DHT22;12844;52.110;5.548;2022-07-05T13:24:50;25.30;55.00
24744;DHT22;12844;52.110;5.548;2022-07-05T13:27:16;25.30;55.00
24744;DHT22;12844;52.110;5.548;2022-07-05T13:29:41;25.20;55.00
24744;DHT22;12844;52.110;5.548;2022-07-05T13:32:08;25.20;55.10
24744;DHT22;12844;52.110;5.548;2022-07-05T13:34:33;25.20;55.10
24744;DHT22;12844;52.110;5.548;2022-07-05T13:36:59;25.20;55.10
24744;DHT22;12844;52.110;5.548;2022-07-05T13:39:26;25.20;55.10
24744;DHT22;12844;52.110;5.548;2022-07-05T13:41:54;25.20;55.10
24744;DHT22;12844;52.110;5.548;2022-07-05T13:44:20;25.20;55.10
24744;DHT22;12844;52.110;5.548;2022-07-05T13:46:46;25.20;55.20
24744;DHT22;12844;52.110;5.548;2022-07-05T13:49:12;25.20;55.20
24744;DHT22;12844;52.110;5.548;2022-07-05T13:51:37;25.20;55.20
24744;DHT22;12844;52.110;5.548;2022-07-05T13:54:03;25.20;55.20
24744;DHT22;12844;52.110;5.548;2022-07-05T13:56:29;25.20;55.20
24744;DHT22;12844;52.110;5.548;2022-07-05T13:58:57;25.20;55.30
24744;DHT22;12844;52.110;5.548;2022-07-05T14:01:23;25.20;55.30
24744;DHT22;12844;52.110;5.548;2022-07-05T14:03:56;25.20;55.30
24744;DHT22;12844;52.110;5.548;2022-07-05T14:06:24;25.10;55.20
24744;DHT22;12844;52.110;5.548;2022-07-05T14:08:50;25.20;55.30
24744;DHT22;12844;52.110;5.548;2022-07-05T14:11:15;25.20;55.30
24744;DHT22;12844;52.110;5.548;2022-07-05T14:13:41;25.20;55.30
24744;DHT22;12844;52.110;5.548;2022-07-05T14:16:07;25.10;55.30
24744;DHT22;12844;52.110;5.548;2022-07-05T14:18:33;25.20;55.30
24744;DHT22;12844;52.110;5.548;2022-07-05T14:20:59;25.20;55.30
24744;DHT22;12844;52.110;5.548;2022-07-05T14:23:24;25.20;55.30
24744;DHT22;12844;52.110;5.548;2022-07-05T14:25:50;25.20;55.30
24744;DHT22;12844;52.110;5.548;2022-07-05T14:28:15;25.20;55.30
24744;DHT22;12844;52.110;5.548;2022-07-05T14:30:43;25.20;55.40
24744;DHT22;12844;52.110;5.548;2022-07-05T14:33:09;25.20;55.30
24744;DHT22;12844;52.110;5.548;2022-07-05T14:35:36;25.20;55.40
24744;DHT22;12844;52.110;5.548;2022-07-05T14:38:02;25.20;55.40
24744;DHT22;12844;52.110;5.548;2022-07-05T14:40:28;25.20;55.40
24744;DHT22;12844;52.110;5.548;2022-07-05T14:42:56;25.20;55.30
24744;DHT22;12844;52.110;5.548;2022-07-05T14:45:23;25.20;55.30
24744;DHT22;12844;52.110;5.548;2022-07-05T14:47:49;25.20;55.30
24744;DHT22;12844;52.110;5.548;2022-07-05T14:50:14;25.20;55.40
24744;DHT22;12844;52.110;5.548;2022-07-05T14:52:40;25.20;55.40
24744;DHT22;12844;52.110;5.548;2022-07-05T14:55:06;25.20;55.40
24744;DHT22;12844;52.110;5.548;2022-07-05T14:57:32;25.20;55.40
24744;DHT22;12844;52.110;5.548;2022-07-05T14:59:58;25.20;55.40
24744;DHT22;12844;52.110;5.548;2022-07-05T15:02:24;25.20;55.40
24744;DHT22;12844;52.110;5.548;2022-07-05T15:04:49;25.20;55.40
24744;DHT22;12844;52.110;5.548;2022-07-05T15:07:15;25.20;55.40
24744;DHT22;12844;52.110;5.548;2022-07-05T15:09:41;25.20;55.40
24744;DHT22;12844;52.110;5.548;2022-07-05T15:12:07;25.20;55.40
24744;DHT22;12844;52.110;5.548;2022-07-05T15:14:33;25.20;55.40
24744;DHT22;12844;52.110;5.548;2022-07-05T15:16:58;25.20;55.40
24744;DHT22;12844;52.110;5.548;2022-07-05T15:19:24;25.20;55.40
24744;DHT22;12844;52.110;5.548;2022-07-05T15:21:50;25.20;55.40
24744;DHT22;12844;52.110;5.548;2022-07-05T15:24:16;25.20;55.40
24744;DHT22;12844;52.110;5.548;2022-07-05T15:26:43;25.20;55.40
24744;DHT22;12844;52.110;5.548;2022-07-05T15:29:09;25.20;55.40
24744;DHT22;12844;52.110;5.548;2022-07-05T15:31:36;25.20;55.40
24744;DHT22;12844;52.110;5.548;2022-07-05T15:34:03;25.20;55.40
24744;DHT22;12844;52.110;5.548;2022-07-05T15:36:29;25.20;55.40
24744;DHT22;12844;52.110;5.548;2022-07-05T15:38:59;25.20;55.40
24744;DHT22;12844;52.110;5.548;2022-07-05T15:41:27;25.20;55.40
24744;DHT22;12844;52.110;5.548;2022-07-05T15:43:52;25.20;55.40
24744;DHT22;12844;52.110;5.548;2022-07-05T15:46:18;25.20;55.40
24744;DHT22;12844;52.110;5.548;2022-07-05T15:48:43;25.20;55.40
24744;DHT22;12844;52.110;5.548;2022-07-05T15:51:09;25.20;55.40